createdAt,value
2022-11-06T00:01:20.163Z,10.40
2022-11-06T00:03:46.655Z,9.80
2022-11-06T00:06:34.720Z,9.43
2022-11-06T00:09:03.945Z,8.85
2022-11-06T00:11:30.585Z,9.68
2022-11-06T00:13:57.400Z,9.10
2022-11-06T00:16:24.158Z,9.20
2022-11-06T00:18:50.636Z,8.75
2022-11-06T00:21:20.206Z,9.50
2022-11-06T00:23:47.418Z,8.60
2022-11-06T00:26:18.228Z,9.07
2022-11-06T00:28:44.899Z,8.48
2022-11-06T00:31:14.478Z,8.50
2022-11-06T00:33:41.263Z,8.50
2022-11-06T00:36:10.633Z,8.27
2022-11-06T00:38:37.182Z,7.63
2022-11-06T00:41:11.863Z,8.07
2022-11-06T00:43:38.535Z,7.65
2022-11-06T00:46:10.638Z,7.70
2022-11-06T00:48:38.290Z,7.68
2022-11-06T00:51:06.915Z,7.68
2022-11-06T00:53:33.577Z,8.05
2022-11-06T00:56:06.968Z,7.18
2022-11-06T00:58:33.591Z,7.05
2022-11-06T01:01:08.681Z,6.82
2022-11-06T01:03:35.285Z,6.90
2022-11-06T01:06:13.363Z,7.32
2022-11-06T01:08:40.554Z,7.03
2022-11-06T01:11:16.253Z,7.13
2022-11-06T01:13:43.773Z,7.82
2022-11-06T01:16:12.300Z,7.40
2022-11-06T01:18:40.708Z,6.72
2022-11-06T01:21:09.794Z,7.18
2022-11-06T01:23:36.451Z,6.72
2022-11-06T01:26:05.220Z,7.15
2022-11-06T01:28:32.340Z,6.68
2022-11-06T01:31:06.439Z,6.80
2022-11-06T01:33:33.401Z,6.70
2022-11-06T01:36:00.136Z,6.88
2022-11-06T01:38:27.200Z,6.55
2022-11-06T01:40:54.109Z,6.53
2022-11-06T01:43:26.408Z,7.30
2022-11-06T01:45:54.775Z,6.82
2022-11-06T01:48:25.173Z,6.38
2022-11-06T01:53:20.334Z,6.15
2022-11-06T01:55:49.158Z,6.82
2022-11-06T01:58:18.495Z,6.18
2022-11-06T02:00:45.247Z,5.97
2022-11-06T02:03:12.802Z,6.50
2022-11-06T02:05:41.049Z,6.10
2022-11-06T02:08:10.360Z,6.18
2022-11-06T02:10:37.345Z,6.07
2022-11-06T02:13:10.711Z,6.10
2022-11-06T02:16:00.312Z,5.88
2022-11-06T02:18:48.086Z,5.83
2022-11-06T02:21:36.042Z,5.70
2022-11-06T02:24:16.876Z,5.63
2022-11-06T02:26:57.361Z,6.25
2022-11-06T02:32:10.771Z,5.50
2022-11-06T02:34:39.812Z,5.90
2022-11-06T02:37:14.827Z,5.57
2022-11-06T02:39:44.006Z,5.63
2022-11-06T02:42:12.747Z,5.30
2022-11-06T02:44:40.183Z,5.65
2022-11-06T02:47:10.124Z,5.70
2022-11-06T02:49:45.107Z,5.18
2022-11-06T02:52:16.236Z,5.43
2022-11-06T02:54:47.323Z,5.40
2022-11-06T02:57:16.295Z,5.35
2022-11-06T02:59:47.811Z,5.72
2022-11-06T03:02:23.338Z,5.70
2022-11-06T03:05:05.295Z,5.68
2022-11-06T03:07:37.547Z,5.35
2022-11-06T03:10:06.106Z,5.60
2022-11-06T03:13:05.642Z,5.50
2022-11-06T03:15:38.596Z,5.68
2022-11-06T03:18:07.982Z,5.22
2022-11-06T03:20:47.352Z,5.32
2022-11-06T03:23:37.708Z,5.00
2022-11-06T03:26:18.077Z,5.63
2022-11-06T03:31:38.989Z,5.55
2022-11-06T03:34:10.791Z,5.22
2022-11-06T03:36:42.670Z,5.10
2022-11-06T03:39:15.179Z,5.50
2022-11-06T03:41:45.135Z,5.68
2022-11-06T03:44:16.801Z,5.40
2022-11-06T03:46:47.561Z,5.25
2022-11-06T03:49:18.607Z,5.40
2022-11-06T03:51:50.052Z,5.40
2022-11-06T03:54:55.247Z,4.95
2022-11-06T03:57:42.941Z,5.38
2022-11-06T04:00:10.701Z,4.85
2022-11-06T04:02:40.621Z,5.07
2022-11-06T04:05:12.330Z,5.20
2022-11-06T04:08:04.555Z,5.20
2022-11-06T04:10:50.794Z,5.10
2022-11-06T04:13:38.561Z,4.95
2022-11-06T04:16:06.659Z,4.63
2022-11-06T04:18:33.083Z,5.78
2022-11-06T04:21:25.906Z,4.72
2022-11-06T04:24:32.830Z,5.25
2022-11-06T04:27:17.694Z,5.20
2022-11-06T04:30:05.168Z,5.00
2022-11-06T04:32:35.414Z,5.13
2022-11-06T04:35:20.448Z,5.10
2022-11-06T04:37:53.477Z,5.20
2022-11-06T04:40:43.241Z,4.80
2022-11-06T04:43:36.263Z,5.45
2022-11-06T04:46:06.299Z,5.13
2022-11-06T04:48:33.015Z,5.25
2022-11-06T04:51:02.989Z,5.50
2022-11-06T04:53:31.236Z,5.07
2022-11-06T04:56:07.339Z,5.20
2022-11-06T04:58:33.758Z,5.07
2022-11-06T05:01:00.278Z,5.40
2022-11-06T05:03:26.739Z,5.38
2022-11-06T05:05:53.131Z,5.10
2022-11-06T05:08:20.863Z,5.43
2022-11-06T05:10:47.839Z,5.35
2022-11-06T05:13:15.476Z,5.90
2022-11-06T05:15:42.364Z,5.03
2022-11-06T05:18:08.955Z,5.60
2022-11-06T05:20:35.934Z,5.13
2022-11-06T05:23:02.348Z,5.07
2022-11-06T05:25:34.712Z,5.20
2022-11-06T05:28:02.406Z,5.10
2022-11-06T05:30:28.950Z,4.78
2022-11-06T05:32:55.372Z,4.50
2022-11-06T05:35:22.064Z,4.70
2022-11-06T05:37:49.959Z,4.95
2022-11-06T05:40:17.110Z,5.03
2022-11-06T05:42:44.163Z,4.50
2022-11-06T05:45:11.891Z,4.70
2022-11-06T05:47:41.790Z,4.80
2022-11-06T05:50:09.485Z,5.15
2022-11-06T05:52:36.377Z,5.82
2022-11-06T05:55:03.414Z,5.85
2022-11-06T05:57:29.830Z,5.05
2022-11-06T05:59:56.486Z,4.80
2022-11-06T06:02:23.029Z,5.07
2022-11-06T06:04:49.535Z,4.80
2022-11-06T06:07:15.978Z,4.45
2022-11-06T06:09:42.582Z,4.78
2022-11-06T06:12:12.336Z,4.93
2022-11-06T06:14:38.984Z,4.35
2022-11-06T06:17:05.420Z,4.40
2022-11-06T06:19:31.785Z,4.75
2022-11-06T06:21:58.233Z,4.82
2022-11-06T06:24:24.711Z,4.60
2022-11-06T06:26:51.129Z,4.40
2022-11-06T06:29:17.505Z,5.15
2022-11-06T06:31:43.911Z,4.60
2022-11-06T06:34:10.373Z,4.68
2022-11-06T06:36:36.732Z,4.50
2022-11-06T06:39:04.559Z,4.63
2022-11-06T06:41:30.930Z,4.40
2022-11-06T06:43:57.337Z,4.38
2022-11-06T06:46:23.746Z,4.70
2022-11-06T06:48:50.208Z,4.40
2022-11-06T06:51:22.659Z,4.63
2022-11-06T06:53:50.394Z,4.30
2022-11-06T06:56:19.316Z,4.40
2022-11-06T06:58:46.111Z,4.45
2022-11-06T07:01:12.646Z,4.90
2022-11-06T07:03:39.924Z,4.35
2022-11-06T07:06:07.318Z,4.60
2022-11-06T07:08:34.170Z,4.82
2022-11-06T07:11:07.322Z,4.00
2022-11-06T07:13:36.306Z,4.38
2022-11-06T07:16:08.513Z,4.20
2022-11-06T07:18:37.398Z,4.43
2022-11-06T07:21:05.588Z,4.70
2022-11-06T07:23:32.165Z,4.78
2022-11-06T07:25:58.593Z,4.60
2022-11-06T07:28:24.970Z,4.85
2022-11-06T07:30:51.374Z,4.90
2022-11-06T07:33:17.897Z,4.30
2022-11-06T07:35:44.555Z,4.80
2022-11-06T07:38:11.195Z,4.30
2022-11-06T07:40:37.925Z,4.05
2022-11-06T07:43:08.936Z,4.45
2022-11-06T07:45:36.892Z,5.00
2022-11-06T07:48:04.201Z,4.57
2022-11-06T07:50:32.085Z,4.50
2022-11-06T07:53:01.802Z,4.68
2022-11-06T07:55:28.223Z,4.70
2022-11-06T07:57:54.974Z,4.45
2022-11-06T08:00:21.710Z,4.50
2022-11-06T08:02:53.023Z,4.50
2022-11-06T08:05:19.893Z,4.65
2022-11-06T08:07:47.570Z,4.57
2022-11-06T08:10:14.276Z,5.10
2022-11-06T08:12:40.942Z,4.90
2022-11-06T08:15:07.967Z,4.68
2022-11-06T08:17:34.641Z,4.53
2022-11-06T08:20:01.029Z,4.93
2022-11-06T08:22:27.390Z,4.50
2022-11-06T08:24:54.039Z,4.63
2022-11-06T08:27:23.664Z,4.40
2022-11-06T08:29:50.544Z,4.70
2022-11-06T08:32:16.979Z,4.47
2022-11-06T08:34:43.435Z,4.65
2022-11-06T08:37:11.004Z,4.20
2022-11-06T08:39:37.709Z,4.20
2022-11-06T08:42:05.546Z,4.60
2022-11-06T08:44:32.001Z,5.00
2022-11-06T08:46:58.362Z,4.78
2022-11-06T08:49:24.882Z,4.40
2022-11-06T08:51:51.305Z,4.78
2022-11-06T08:54:17.737Z,4.90
2022-11-06T08:56:44.109Z,4.78
2022-11-06T08:59:10.596Z,4.70
2022-11-06T09:01:37.114Z,4.32
2022-11-06T09:04:03.880Z,4.68
2022-11-06T09:06:30.260Z,4.03
2022-11-06T09:08:56.677Z,4.80
2022-11-06T09:11:23.166Z,4.68
2022-11-06T09:13:49.616Z,4.75
2022-11-06T09:16:16.396Z,4.35
2022-11-06T09:18:43.914Z,4.38
2022-11-06T09:21:10.488Z,4.18
2022-11-06T09:23:37.172Z,4.40
2022-11-06T09:26:04.685Z,4.20
2022-11-06T09:28:31.111Z,5.03
2022-11-06T09:30:59.539Z,4.72
2022-11-06T09:33:26.169Z,4.32
2022-11-06T09:35:52.857Z,4.10
2022-11-06T09:38:19.312Z,4.53
2022-11-06T09:40:52.589Z,5.10
2022-11-06T09:43:58.120Z,4.57
2022-11-06T09:46:21.204Z,4.85
2022-11-06T09:48:54.695Z,5.03
2022-11-06T09:51:29.064Z,4.47
2022-11-06T09:54:02.111Z,4.80
2022-11-06T09:56:33.758Z,4.32
2022-11-06T09:59:04.306Z,4.50
2022-11-06T10:01:38.437Z,4.53
2022-11-06T10:04:05.801Z,4.70
2022-11-06T10:06:32.789Z,4.45
2022-11-06T10:09:06.522Z,4.20
2022-11-06T10:11:57.957Z,4.10
2022-11-06T10:14:34.729Z,4.05
2022-11-06T10:17:24.938Z,4.35
2022-11-06T10:20:10.882Z,4.38
2022-11-06T10:22:42.228Z,4.18
2022-11-06T10:25:20.257Z,4.30
2022-11-06T10:28:00.843Z,4.65
2022-11-06T10:30:35.259Z,4.65
2022-11-06T10:33:17.037Z,4.40
2022-11-06T10:35:50.868Z,4.00
2022-11-06T10:38:23.480Z,4.38
2022-11-06T10:40:50.488Z,4.72
2022-11-06T10:43:38.831Z,4.82
2022-11-06T10:46:08.214Z,4.60
2022-11-06T10:48:43.800Z,4.75
2022-11-06T10:51:24.912Z,4.60
2022-11-06T10:54:10.065Z,4.40
2022-11-06T10:56:44.297Z,4.18
2022-11-06T10:59:10.746Z,3.92
2022-11-06T11:01:38.922Z,4.28
2022-11-06T11:04:06.520Z,4.97
2022-11-06T11:06:33.367Z,5.60
2022-11-06T11:09:01.856Z,5.15
2022-11-06T11:11:29.302Z,4.85
2022-11-06T11:14:01.675Z,4.60
2022-11-06T11:16:44.573Z,4.65
2022-11-06T11:19:21.929Z,4.78
2022-11-06T11:22:00.253Z,5.43
2022-11-06T11:24:27.903Z,4.85
2022-11-06T11:26:57.044Z,5.13
2022-11-06T11:29:27.173Z,5.00
2022-11-06T11:31:57.550Z,4.85
2022-11-06T11:36:59.979Z,5.07
2022-11-06T11:39:30.921Z,4.93
2022-11-06T11:42:45.554Z,5.20
2022-11-06T11:45:15.307Z,5.40
2022-11-06T11:47:51.285Z,5.78
2022-11-06T11:50:23.993Z,5.28
2022-11-06T11:52:54.860Z,5.85
2022-11-06T11:55:26.725Z,5.15
2022-11-06T11:57:56.223Z,5.45
2022-11-06T12:00:23.718Z,5.40
2022-11-06T12:02:57.812Z,5.85
2022-11-06T12:05:30.528Z,5.53
2022-11-06T12:07:58.246Z,5.82
2022-11-06T12:10:33.826Z,6.60
2022-11-06T12:13:03.297Z,6.15
2022-11-06T12:15:54.788Z,5.70
2022-11-06T12:18:23.285Z,5.93
2022-11-06T12:21:05.184Z,5.68
2022-11-06T12:23:38.116Z,5.78
2022-11-06T12:26:12.013Z,5.75
2022-11-06T12:28:42.270Z,5.78
2022-11-06T12:31:24.145Z,6.03
2022-11-06T12:34:14.486Z,6.47
2022-11-06T12:36:46.138Z,5.78
2022-11-06T12:39:18.555Z,5.90
2022-11-06T12:41:48.539Z,5.15
2022-11-06T12:44:16.646Z,5.25
2022-11-06T12:47:26.615Z,5.60
2022-11-06T12:50:14.967Z,5.40
2022-11-06T12:52:53.944Z,5.65
2022-11-06T12:55:53.966Z,5.55
2022-11-06T12:58:44.712Z,5.53
2022-11-06T13:01:38.850Z,5.47
2022-11-06T13:04:21.627Z,5.20
2022-11-06T13:07:44.935Z,6.22
2022-11-06T13:10:32.244Z,5.93
2022-11-06T13:13:36.254Z,5.30
2022-11-06T13:16:21.212Z,5.57
2022-11-06T13:18:55.352Z,5.63
2022-11-06T13:21:31.485Z,5.40
2022-11-06T13:24:03.169Z,5.28
2022-11-06T13:26:49.549Z,5.85
2022-11-06T13:29:19.079Z,5.72
2022-11-06T13:31:51.470Z,5.37
2022-11-06T13:34:29.081Z,5.43
2022-11-06T13:36:56.717Z,5.93
2022-11-06T13:39:44.404Z,5.60
2022-11-06T13:42:35.720Z,5.32
2022-11-06T13:45:03.080Z,5.30
2022-11-06T13:47:41.299Z,5.78
2022-11-06T13:50:25.594Z,5.60
2022-11-06T13:52:57.923Z,5.72
2022-11-06T13:55:33.538Z,5.45
2022-11-06T13:58:12.512Z,5.32
2022-11-06T14:00:51.385Z,5.15
2022-11-06T14:03:32.635Z,5.70
2022-11-06T14:06:03.087Z,5.30
2022-11-06T14:11:06.652Z,5.38
2022-11-06T14:13:35.813Z,5.32
2022-11-06T14:16:25.113Z,5.07
2022-11-06T14:18:56.696Z,5.53
2022-11-06T14:21:26.060Z,5.15
2022-11-06T14:24:15.650Z,4.88
2022-11-06T14:26:45.251Z,5.20
2022-11-06T14:29:29.602Z,5.13
2022-11-06T14:32:12.956Z,5.63
2022-11-06T14:34:43.137Z,5.45
2022-11-06T14:37:18.721Z,4.93
2022-11-06T14:39:55.666Z,5.35
2022-11-06T14:42:32.615Z,5.60
2022-11-06T14:45:08.918Z,5.75
2022-11-06T14:47:49.939Z,5.45
2022-11-06T14:50:19.336Z,5.90
2022-11-06T14:52:57.055Z,6.53
2022-11-06T14:55:40.560Z,5.68
2022-11-06T14:58:23.489Z,5.60
2022-11-06T15:01:10.403Z,5.60
2022-11-06T15:03:45.750Z,5.70
2022-11-06T15:06:18.451Z,5.75
2022-11-06T15:08:50.755Z,5.65
2022-11-06T15:11:32.530Z,5.40
2022-11-06T15:14:00.303Z,5.43
2022-11-06T15:16:40.430Z,5.45
2022-11-06T15:19:12.278Z,5.38
2022-11-06T15:21:57.943Z,5.05
2022-11-06T15:24:32.973Z,5.30
2022-11-06T15:27:07.958Z,4.72
2022-11-06T15:29:39.074Z,5.15
2022-11-06T15:32:12.313Z,5.18
2022-11-06T15:34:41.531Z,5.07
2022-11-06T15:37:17.077Z,5.47
2022-11-06T15:39:57.547Z,5.25
2022-11-06T15:42:33.839Z,5.00
2022-11-06T15:45:21.272Z,4.80
2022-11-06T15:47:59.834Z,4.57
2022-11-06T15:50:31.394Z,4.90
2022-11-06T15:53:13.101Z,5.03
2022-11-06T15:55:45.450Z,4.95
2022-11-06T15:58:17.819Z,5.22
2022-11-06T16:00:45.861Z,4.78
2022-11-06T16:03:18.723Z,5.00
2022-11-06T16:05:45.770Z,4.57
2022-11-06T16:08:14.739Z,4.30
2022-11-06T16:10:43.774Z,4.85
2022-11-06T16:13:16.488Z,4.32
2022-11-06T16:15:43.790Z,4.65
2022-11-06T16:18:26.701Z,5.95
2022-11-06T16:21:30.757Z,5.22
2022-11-06T16:24:03.110Z,4.93
2022-11-06T16:26:32.489Z,4.88
2022-11-06T16:29:00.522Z,4.60
2022-11-06T16:31:29.490Z,5.40
2022-11-06T16:34:04.778Z,5.80
2022-11-06T16:36:49.669Z,7.10
2022-11-06T16:39:40.238Z,5.32
2022-11-06T16:42:14.334Z,5.22
2022-11-06T16:44:40.749Z,4.78
2022-11-06T16:47:10.213Z,4.95
2022-11-06T16:49:38.695Z,5.10
2022-11-06T16:52:18.921Z,4.93
2022-11-06T16:54:47.596Z,4.95
2022-11-06T16:57:19.333Z,5.43
2022-11-06T16:59:56.115Z,5.00
2022-11-06T17:02:25.035Z,5.35
2022-11-06T17:04:51.630Z,5.30
2022-11-06T17:07:20.830Z,4.80
2022-11-06T17:09:47.293Z,4.82
2022-11-06T17:12:13.745Z,4.60
2022-11-06T17:14:44.365Z,5.18
2022-11-06T17:17:25.903Z,4.95
2022-11-06T17:19:52.357Z,4.70
2022-11-06T17:22:18.799Z,5.57
2022-11-06T17:24:45.202Z,5.30
2022-11-06T17:27:11.680Z,4.68
2022-11-06T17:29:38.734Z,4.78
2022-11-06T17:32:05.196Z,4.78
2022-11-06T17:34:31.587Z,4.65
2022-11-06T17:36:58.028Z,5.00
2022-11-06T17:39:24.623Z,4.90
2022-11-06T17:41:51.068Z,4.53
2022-11-06T17:44:17.491Z,4.65
2022-11-06T17:46:46.360Z,5.07
2022-11-06T17:49:17.511Z,4.78
2022-11-06T17:51:50.716Z,4.68
2022-11-06T17:54:18.911Z,4.72
2022-11-06T17:56:45.419Z,4.65
2022-11-06T17:59:13.369Z,4.95
2022-11-06T18:01:41.545Z,4.68
2022-11-06T18:04:08.378Z,4.55
2022-11-06T18:06:34.870Z,4.53
2022-11-06T18:09:05.400Z,4.80
2022-11-06T18:11:31.856Z,4.80
2022-11-06T18:13:58.489Z,4.70
2022-11-06T18:16:28.335Z,4.65
2022-11-06T18:18:55.785Z,4.75
2022-11-06T18:21:22.441Z,4.82
2022-11-06T18:23:48.937Z,5.00
2022-11-06T18:26:15.726Z,4.93
2022-11-06T18:28:42.314Z,5.00
2022-11-06T18:31:09.518Z,4.55
2022-11-06T18:33:35.943Z,4.60
2022-11-06T18:36:04.628Z,5.15
2022-11-06T18:38:31.288Z,5.40
2022-11-06T18:40:57.778Z,4.80
2022-11-06T18:43:24.189Z,5.00
2022-11-06T18:45:51.142Z,4.80
2022-11-06T18:48:21.319Z,5.00
2022-11-06T18:50:47.867Z,4.85
2022-11-06T18:53:15.173Z,4.82
2022-11-06T18:55:45.990Z,5.05
2022-11-06T18:58:12.888Z,4.80
2022-11-06T19:00:39.571Z,5.00
2022-11-06T19:03:06.221Z,4.75
2022-11-06T19:05:34.291Z,5.32
2022-11-06T19:08:02.244Z,4.65
2022-11-06T19:10:29.491Z,4.75
2022-11-06T19:12:59.255Z,5.07
2022-11-06T19:15:26.159Z,5.57
2022-11-06T19:17:54.481Z,5.15
2022-11-06T19:20:21.579Z,5.18
2022-11-06T19:22:52.443Z,4.95
2022-11-06T19:25:20.285Z,4.88
2022-11-06T19:27:47.754Z,5.10
2022-11-06T19:30:15.256Z,5.22
2022-11-06T19:32:42.756Z,4.85
2022-11-06T19:35:09.518Z,4.82
2022-11-06T19:37:38.280Z,4.65
2022-11-06T19:40:06.356Z,5.00
2022-11-06T19:42:33.546Z,5.35
2022-11-06T19:45:00.348Z,5.22
2022-11-06T19:47:28.140Z,5.05
2022-11-06T19:49:54.569Z,4.68
2022-11-06T19:52:42.441Z,4.72
2022-11-06T19:55:25.712Z,5.03
2022-11-06T19:57:54.508Z,5.18
2022-11-06T20:00:21.006Z,5.20
2022-11-06T20:02:51.349Z,5.18
2022-11-06T20:07:44.487Z,5.15
2022-11-06T20:10:11.103Z,4.88
2022-11-06T20:12:37.532Z,5.18
2022-11-06T20:15:04.508Z,5.10
2022-11-06T20:17:30.957Z,4.80
2022-11-06T20:19:57.373Z,5.00
2022-11-06T20:22:25.096Z,5.53
2022-11-06T20:24:51.494Z,5.38
2022-11-06T20:27:17.929Z,5.40
2022-11-06T20:29:44.854Z,5.40
2022-11-06T20:32:13.644Z,4.97
2022-11-06T20:34:42.661Z,5.10
2022-11-06T20:37:09.053Z,5.03
2022-11-06T20:39:35.480Z,5.30
2022-11-06T20:42:01.904Z,4.70
2022-11-06T20:44:28.665Z,5.20
2022-11-06T20:46:55.068Z,5.07
2022-11-06T20:49:21.529Z,4.97
2022-11-06T20:52:12.585Z,5.28
2022-11-06T20:54:34.344Z,5.38
2022-11-06T20:57:00.805Z,5.25
2022-11-06T20:59:27.449Z,5.18
2022-11-06T21:01:54.157Z,5.07
2022-11-06T21:04:21.418Z,5.45
2022-11-06T21:06:47.868Z,5.82
2022-11-06T21:09:16.614Z,5.53
2022-11-06T21:11:43.013Z,5.05
2022-11-06T21:14:09.434Z,5.50
2022-11-06T21:16:36.845Z,5.47
2022-11-06T21:19:04.505Z,5.47
2022-11-06T21:21:33.212Z,5.30
2022-11-06T21:24:01.364Z,5.15
2022-11-06T21:26:31.241Z,5.38
2022-11-06T21:28:58.447Z,5.78
2022-11-06T21:31:27.552Z,5.43
2022-11-06T21:33:56.518Z,5.30
2022-11-06T21:36:25.921Z,4.97
2022-11-06T21:38:53.781Z,4.85
2022-11-06T21:41:25.691Z,5.60
2022-11-06T21:43:52.238Z,5.50
2022-11-06T21:46:19.830Z,5.25
2022-11-06T21:48:47.941Z,5.40
2022-11-06T21:51:18.800Z,5.20
2022-11-06T21:56:30.694Z,5.07
2022-11-06T21:58:59.528Z,4.80
2022-11-06T22:01:27.542Z,5.00
2022-11-06T22:03:54.460Z,5.57
2022-11-06T22:06:24.324Z,4.82
2022-11-06T22:08:52.922Z,5.65
2022-11-06T22:11:25.560Z,4.65
2022-11-06T22:13:53.286Z,5.22
2022-11-06T22:16:23.487Z,5.68
2022-11-06T22:18:50.108Z,5.53
2022-11-06T22:21:19.157Z,4.95
2022-11-06T22:23:46.149Z,5.05
2022-11-06T22:26:17.996Z,5.45
2022-11-06T22:28:44.758Z,5.15
2022-11-06T22:31:11.353Z,4.97
2022-11-06T22:33:38.513Z,4.70
2022-11-06T22:36:11.063Z,5.03
2022-11-06T22:38:39.536Z,5.55
2022-11-06T22:41:07.818Z,5.10
2022-11-06T22:43:35.571Z,5.10
2022-11-06T22:46:11.742Z,5.10
2022-11-06T22:48:38.592Z,5.47
2022-11-06T22:51:07.216Z,5.40
2022-11-06T22:53:33.742Z,5.30
2022-11-06T22:56:00.959Z,5.80
2022-11-06T22:58:29.024Z,5.18
2022-11-06T23:00:56.938Z,5.00
2022-11-06T23:03:24.898Z,5.15
2022-11-06T23:05:51.578Z,4.60
2022-11-06T23:08:18.167Z,4.85
2022-11-06T23:10:45.084Z,5.00
2022-11-06T23:13:11.882Z,5.13
2022-11-06T23:15:38.689Z,5.35
2022-11-06T23:18:05.623Z,4.90
2022-11-06T23:20:33.251Z,4.97
2022-11-06T23:23:00.773Z,4.82
2022-11-06T23:25:28.075Z,4.63
2022-11-06T23:27:54.746Z,5.05
2022-11-06T23:30:21.589Z,4.82
2022-11-06T23:32:48.058Z,5.15
2022-11-06T23:35:16.850Z,4.57
2022-11-06T23:37:44.479Z,5.03
2022-11-06T23:40:11.453Z,4.90
2022-11-06T23:42:37.829Z,5.13
2022-11-06T23:45:23.993Z,5.25
2022-11-06T23:47:50.721Z,5.60
2022-11-06T23:50:17.864Z,5.05
2022-11-06T23:52:44.839Z,5.10
2022-11-06T23:55:11.678Z,5.03
2022-11-06T23:57:38.136Z,5.35
